Carmel by the Sea, California
Current Conditions -  °F | °C
As of 6:54 AM on Thursday 30 Oct 2014 (Local Time) from KMRY Reporting Station
Clear Clear  
Wind Chill: 58°   Ceiling: Unl
Heat Index: 58°   Visibility: 10mi
Dew Point: 43°   Wind: 5mph
Humidity: 58%   Direction: 100°E
Pressure: 29.93"   Gusts: NA
Location:  36.5547°N, 121.916°W
Report Text: KMRY 301354Z 10004KT 10SM CLR 14/06 A2993 RMK AO2 SLP146 T01440061
Loading
Personal Weather Stations






























Interactive Weather Map
Tropical Storm Tracking
New forecast layout! Learn more

10-Day Weather Forecast

Advertisements
Track Severe Weather on mobile